sensor_id;sensor_type;location;lat;lon;timestamp;P1;durP1;ratioP1;P2;durP2;ratioP2
49610;SDS011;35515;48.766;9.176;2023-09-08T00:00:20;7.70;;;5.85;;
49610;SDS011;35515;48.766;9.176;2023-09-08T00:02:46;9.38;;;6.82;;
49610;SDS011;35515;48.766;9.176;2023-09-08T00:05:13;9.00;;;6.80;;
49610;SDS011;35515;48.766;9.176;2023-09-08T00:07:40;7.38;;;6.63;;
49610;SDS011;35515;48.766;9.176;2023-09-08T00:10:08;10.35;;;6.32;;
49610;SDS011;35515;48.766;9.176;2023-09-08T00:12:36;7.75;;;5.88;;
49610;SDS011;35515;48.766;9.176;2023-09-08T00:15:03;8.00;;;6.63;;
49610;SDS011;35515;48.766;9.176;2023-09-08T00:17:30;9.57;;;6.82;;
49610;SDS011;35515;48.766;9.176;2023-09-08T00:22:31;9.43;;;6.97;;
49610;SDS011;35515;48.766;9.176;2023-09-08T00:24:58;8.10;;;6.40;;
49610;SDS011;35515;48.766;9.176;2023-09-08T00:27:24;10.88;;;6.78;;
49610;SDS011;35515;48.766;9.176;2023-09-08T00:29:52;10.05;;;6.43;;
49610;SDS011;35515;48.766;9.176;2023-09-08T00:32:19;8.60;;;6.68;;
49610;SDS011;35515;48.766;9.176;2023-09-08T00:34:45;9.50;;;6.75;;
49610;SDS011;35515;48.766;9.176;2023-09-08T00:37:12;8.13;;;6.95;;
49610;SDS011;35515;48.766;9.176;2023-09-08T00:39:38;9.85;;;6.95;;
49610;SDS011;35515;48.766;9.176;2023-09-08T00:42:05;8.55;;;6.97;;
49610;SDS011;35515;48.766;9.176;2023-09-08T00:44:32;8.57;;;6.38;;
49610;SDS011;35515;48.766;9.176;2023-09-08T00:47:00;9.35;;;6.72;;
49610;SDS011;35515;48.766;9.176;2023-09-08T00:49:26;7.82;;;6.75;;
49610;SDS011;35515;48.766;9.176;2023-09-08T00:51:53;8.35;;;6.13;;
49610;SDS011;35515;48.766;9.176;2023-09-08T00:54:20;9.43;;;6.95;;
49610;SDS011;35515;48.766;9.176;2023-09-08T00:56:46;9.18;;;6.28;;
49610;SDS011;35515;48.766;9.176;2023-09-08T00:59:14;10.23;;;7.18;;
49610;SDS011;35515;48.766;9.176;2023-09-08T01:01:41;9.20;;;6.30;;
49610;SDS011;35515;48.766;9.176;2023-09-08T01:04:09;8.18;;;6.25;;
49610;SDS011;35515;48.766;9.176;2023-09-08T01:06:36;9.77;;;6.90;;
49610;SDS011;35515;48.766;9.176;2023-09-08T01:09:03;9.38;;;6.32;;
49610;SDS011;35515;48.766;9.176;2023-09-08T01:11:30;8.05;;;6.28;;
49610;SDS011;35515;48.766;9.176;2023-09-08T01:13:57;10.77;;;7.10;;
49610;SDS011;35515;48.766;9.176;2023-09-08T01:16:24;9.13;;;6.80;;
49610;SDS011;35515;48.766;9.176;2023-09-08T01:18:50;8.70;;;6.53;;
49610;SDS011;35515;48.766;9.176;2023-09-08T01:24:17;7.80;;;6.28;;
49610;SDS011;35515;48.766;9.176;2023-09-08T01:26:58;8.48;;;6.45;;
49610;SDS011;35515;48.766;9.176;2023-09-08T01:29:25;8.15;;;6.72;;
49610;SDS011;35515;48.766;9.176;2023-09-08T01:31:54;8.73;;;6.72;;
49610;SDS011;35515;48.766;9.176;2023-09-08T01:34:21;12.18;;;7.13;;
49610;SDS011;35515;48.766;9.176;2023-09-08T01:36:48;7.30;;;6.32;;
49610;SDS011;35515;48.766;9.176;2023-09-08T01:39:15;7.50;;;6.30;;
49610;SDS011;35515;48.766;9.176;2023-09-08T01:41:41;10.95;;;6.55;;
49610;SDS011;35515;48.766;9.176;2023-09-08T01:44:09;7.95;;;6.15;;
49610;SDS011;35515;48.766;9.176;2023-09-08T01:46:36;9.52;;;6.90;;
49610;SDS011;35515;48.766;9.176;2023-09-08T01:49:03;9.07;;;7.25;;
49610;SDS011;35515;48.766;9.176;2023-09-08T01:51:30;9.45;;;7.50;;
49610;SDS011;35515;48.766;9.176;2023-09-08T01:53:56;9.35;;;6.93;;
49610;SDS011;35515;48.766;9.176;2023-09-08T01:56:23;8.82;;;6.50;;
49610;SDS011;35515;48.766;9.176;2023-09-08T01:58:49;9.60;;;7.05;;
49610;SDS011;35515;48.766;9.176;2023-09-08T02:01:17;9.07;;;6.20;;
49610;SDS011;35515;48.766;9.176;2023-09-08T02:03:44;9.13;;;6.90;;
49610;SDS011;35515;48.766;9.176;2023-09-08T02:06:10;9.23;;;6.72;;
49610;SDS011;35515;48.766;9.176;2023-09-08T02:08:36;12.40;;;7.80;;
49610;SDS011;35515;48.766;9.176;2023-09-08T02:11:03;7.40;;;6.28;;
49610;SDS011;35515;48.766;9.176;2023-09-08T02:13:29;11.27;;;7.25;;
49610;SDS011;35515;48.766;9.176;2023-09-08T02:15:56;8.95;;;7.20;;
49610;SDS011;35515;48.766;9.176;2023-09-08T02:18:25;11.52;;;7.30;;
49610;SDS011;35515;48.766;9.176;2023-09-08T02:20:53;13.50;;;7.07;;
49610;SDS011;35515;48.766;9.176;2023-09-08T02:23:19;7.75;;;6.35;;
49610;SDS011;35515;48.766;9.176;2023-09-08T02:25:46;12.55;;;7.13;;
49610;SDS011;35515;48.766;9.176;2023-09-08T02:28:12;8.98;;;7.13;;
49610;SDS011;35515;48.766;9.176;2023-09-08T02:30:39;8.48;;;6.55;;
49610;SDS011;35515;48.766;9.176;2023-09-08T02:33:05;8.45;;;6.55;;
49610;SDS011;35515;48.766;9.176;2023-09-08T02:35:36;8.25;;;6.22;;
49610;SDS011;35515;48.766;9.176;2023-09-08T02:38:04;8.25;;;6.65;;
49610;SDS011;35515;48.766;9.176;2023-09-08T02:40:30;8.25;;;6.60;;
49610;SDS011;35515;48.766;9.176;2023-09-08T02:42:59;8.40;;;6.15;;
49610;SDS011;35515;48.766;9.176;2023-09-08T02:45:25;9.60;;;6.40;;
49610;SDS011;35515;48.766;9.176;2023-09-08T02:47:52;12.52;;;6.70;;
49610;SDS011;35515;48.766;9.176;2023-09-08T02:50:19;10.80;;;6.88;;
49610;SDS011;35515;48.766;9.176;2023-09-08T02:52:46;9.23;;;7.10;;
49610;SDS011;35515;48.766;9.176;2023-09-08T02:55:13;10.35;;;7.03;;
49610;SDS011;35515;48.766;9.176;2023-09-08T02:57:40;7.05;;;6.32;;
49610;SDS011;35515;48.766;9.176;2023-09-08T03:00:07;9.48;;;6.88;;
49610;SDS011;35515;48.766;9.176;2023-09-08T03:02:33;8.35;;;6.70;;
49610;SDS011;35515;48.766;9.176;2023-09-08T03:05:00;9.95;;;6.57;;
49610;SDS011;35515;48.766;9.176;2023-09-08T03:07:27;9.98;;;7.07;;
49610;SDS011;35515;48.766;9.176;2023-09-08T03:09:55;9.68;;;7.15;;
49610;SDS011;35515;48.766;9.176;2023-09-08T03:12:21;8.85;;;6.82;;
49610;SDS011;35515;48.766;9.176;2023-09-08T03:14:48;8.98;;;7.28;;
49610;SDS011;35515;48.766;9.176;2023-09-08T03:17:14;10.70;;;6.95;;
49610;SDS011;35515;48.766;9.176;2023-09-08T03:19:44;9.40;;;6.97;;
49610;SDS011;35515;48.766;9.176;2023-09-08T03:22:11;9.70;;;7.30;;
49610;SDS011;35515;48.766;9.176;2023-09-08T03:24:37;8.10;;;7.00;;
49610;SDS011;35515;48.766;9.176;2023-09-08T03:27:05;9.95;;;6.28;;
49610;SDS011;35515;48.766;9.176;2023-09-08T03:29:31;9.75;;;6.82;;
49610;SDS011;35515;48.766;9.176;2023-09-08T03:31:58;8.65;;;7.00;;
49610;SDS011;35515;48.766;9.176;2023-09-08T03:34:24;7.75;;;6.85;;
49610;SDS011;35515;48.766;9.176;2023-09-08T03:36:51;8.23;;;6.47;;
49610;SDS011;35515;48.766;9.176;2023-09-08T03:39:19;8.00;;;6.25;;
49610;SDS011;35515;48.766;9.176;2023-09-08T03:41:46;8.07;;;6.00;;
49610;SDS011;35515;48.766;9.176;2023-09-08T03:44:13;9.57;;;6.70;;
49610;SDS011;35515;48.766;9.176;2023-09-08T03:46:40;9.57;;;7.07;;
49610;SDS011;35515;48.766;9.176;2023-09-08T03:49:06;8.70;;;6.82;;
49610;SDS011;35515;48.766;9.176;2023-09-08T03:51:33;10.85;;;7.53;;
49610;SDS011;35515;48.766;9.176;2023-09-08T03:53:59;8.05;;;6.40;;
49610;SDS011;35515;48.766;9.176;2023-09-08T03:56:28;9.73;;;6.60;;
49610;SDS011;35515;48.766;9.176;2023-09-08T03:58:54;10.18;;;7.18;;
49610;SDS011;35515;48.766;9.176;2023-09-08T04:01:22;9.70;;;7.13;;
49610;SDS011;35515;48.766;9.176;2023-09-08T04:03:48;9.15;;;6.63;;
49610;SDS011;35515;48.766;9.176;2023-09-08T04:06:15;9.48;;;6.78;;
49610;SDS011;35515;48.766;9.176;2023-09-08T04:08:41;8.20;;;6.18;;
49610;SDS011;35515;48.766;9.176;2023-09-08T04:11:08;9.23;;;6.68;;
49610;SDS011;35515;48.766;9.176;2023-09-08T04:13:34;10.23;;;6.85;;
49610;SDS011;35515;48.766;9.176;2023-09-08T04:16:01;8.38;;;6.95;;
49610;SDS011;35515;48.766;9.176;2023-09-08T04:18:29;9.35;;;6.80;;
49610;SDS011;35515;48.766;9.176;2023-09-08T04:20:55;9.32;;;6.55;;
49610;SDS011;35515;48.766;9.176;2023-09-08T04:23:22;7.88;;;6.78;;
49610;SDS011;35515;48.766;9.176;2023-09-08T04:25:48;10.30;;;6.40;;
49610;SDS011;35515;48.766;9.176;2023-09-08T04:28:15;9.82;;;6.68;;
49610;SDS011;35515;48.766;9.176;2023-09-08T04:30:41;10.70;;;6.38;;
49610;SDS011;35515;48.766;9.176;2023-09-08T04:33:08;11.10;;;6.55;;
49610;SDS011;35515;48.766;9.176;2023-09-08T04:35:36;8.07;;;6.90;;
49610;SDS011;35515;48.766;9.176;2023-09-08T04:38:03;7.55;;;6.38;;
49610;SDS011;35515;48.766;9.176;2023-09-08T04:40:30;8.98;;;6.88;;
49610;SDS011;35515;48.766;9.176;2023-09-08T04:42:56;9.82;;;7.07;;
49610;SDS011;35515;48.766;9.176;2023-09-08T04:45:23;8.90;;;6.72;;
49610;SDS011;35515;48.766;9.176;2023-09-08T04:47:49;7.80;;;6.97;;
49610;SDS011;35515;48.766;9.176;2023-09-08T04:50:16;11.02;;;6.93;;
49610;SDS011;35515;48.766;9.176;2023-09-08T04:52:43;7.90;;;6.25;;
49610;SDS011;35515;48.766;9.176;2023-09-08T04:55:10;9.98;;;7.03;;
49610;SDS011;35515;48.766;9.176;2023-09-08T04:57:37;10.57;;;6.88;;
49610;SDS011;35515;48.766;9.176;2023-09-08T05:00:04;10.13;;;7.13;;
49610;SDS011;35515;48.766;9.176;2023-09-08T05:02:31;9.02;;;7.55;;
49610;SDS011;35515;48.766;9.176;2023-09-08T05:04:58;7.47;;;6.53;;
49610;SDS011;35515;48.766;9.176;2023-09-08T05:07:25;9.48;;;7.30;;
49610;SDS011;35515;48.766;9.176;2023-09-08T05:09:53;12.23;;;7.15;;
49610;SDS011;35515;48.766;9.176;2023-09-08T05:12:19;8.13;;;6.53;;
49610;SDS011;35515;48.766;9.176;2023-09-08T05:14:46;8.13;;;6.50;;
49610;SDS011;35515;48.766;9.176;2023-09-08T05:17:12;10.90;;;6.57;;
49610;SDS011;35515;48.766;9.176;2023-09-08T05:19:39;9.70;;;6.70;;
49610;SDS011;35515;48.766;9.176;2023-09-08T05:22:05;7.88;;;6.53;;
49610;SDS011;35515;48.766;9.176;2023-09-08T05:24:32;9.00;;;7.13;;
49610;SDS011;35515;48.766;9.176;2023-09-08T05:27:00;11.88;;;6.95;;
49610;SDS011;35515;48.766;9.176;2023-09-08T05:31:56;12.27;;;7.22;;
49610;SDS011;35515;48.766;9.176;2023-09-08T05:34:23;9.95;;;7.97;;
49610;SDS011;35515;48.766;9.176;2023-09-08T05:36:50;10.57;;;7.57;;
49610;SDS011;35515;48.766;9.176;2023-09-08T05:39:16;9.60;;;6.80;;
49610;SDS011;35515;48.766;9.176;2023-09-08T05:41:44;10.35;;;7.13;;
49610;SDS011;35515;48.766;9.176;2023-09-08T05:44:12;9.85;;;7.07;;
49610;SDS011;35515;48.766;9.176;2023-09-08T05:46:38;16.08;;;8.05;;
49610;SDS011;35515;48.766;9.176;2023-09-08T05:49:05;12.30;;;7.43;;
49610;SDS011;35515;48.766;9.176;2023-09-08T05:51:31;12.70;;;8.07;;
49610;SDS011;35515;48.766;9.176;2023-09-08T05:53:58;11.85;;;7.88;;
49610;SDS011;35515;48.766;9.176;2023-09-08T05:56:26;10.50;;;7.18;;
49610;SDS011;35515;48.766;9.176;2023-09-08T05:58:56;10.10;;;7.60;;
49610;SDS011;35515;48.766;9.176;2023-09-08T06:01:23;12.45;;;7.63;;
49610;SDS011;35515;48.766;9.176;2023-09-08T06:03:50;9.70;;;7.13;;
49610;SDS011;35515;48.766;9.176;2023-09-08T06:06:17;10.68;;;8.02;;
49610;SDS011;35515;48.766;9.176;2023-09-08T06:08:43;11.30;;;7.68;;
49610;SDS011;35515;48.766;9.176;2023-09-08T06:11:10;11.48;;;6.85;;
49610;SDS011;35515;48.766;9.176;2023-09-08T06:13:37;10.27;;;7.95;;
49610;SDS011;35515;48.766;9.176;2023-09-08T06:16:03;13.70;;;8.18;;
49610;SDS011;35515;48.766;9.176;2023-09-08T06:18:31;15.07;;;8.88;;
49610;SDS011;35515;48.766;9.176;2023-09-08T06:21:05;12.50;;;8.80;;
49610;SDS011;35515;48.766;9.176;2023-09-08T06:23:31;11.30;;;8.23;;
49610;SDS011;35515;48.766;9.176;2023-09-08T06:25:58;13.70;;;8.15;;
49610;SDS011;35515;48.766;9.176;2023-09-08T06:28:26;12.32;;;8.25;;
49610;SDS011;35515;48.766;9.176;2023-09-08T06:30:52;10.55;;;7.30;;
49610;SDS011;35515;48.766;9.176;2023-09-08T06:33:19;12.90;;;8.30;;
49610;SDS011;35515;48.766;9.176;2023-09-08T06:35:48;12.07;;;8.00;;
49610;SDS011;35515;48.766;9.176;2023-09-08T06:38:15;14.05;;;9.35;;
49610;SDS011;35515;48.766;9.176;2023-09-08T06:40:41;13.75;;;8.57;;
49610;SDS011;35515;48.766;9.176;2023-09-08T06:43:08;11.75;;;8.63;;
49610;SDS011;35515;48.766;9.176;2023-09-08T06:45:37;11.32;;;7.45;;
49610;SDS011;35515;48.766;9.176;2023-09-08T06:48:04;10.23;;;7.97;;
49610;SDS011;35515;48.766;9.176;2023-09-08T06:50:31;12.57;;;7.97;;
49610;SDS011;35515;48.766;9.176;2023-09-08T06:52:59;13.90;;;8.25;;
49610;SDS011;35515;48.766;9.176;2023-09-08T06:55:26;10.65;;;8.52;;
49610;SDS011;35515;48.766;9.176;2023-09-08T06:57:52;14.00;;;9.32;;
49610;SDS011;35515;48.766;9.176;2023-09-08T07:00:19;14.55;;;9.60;;
49610;SDS011;35515;48.766;9.176;2023-09-08T07:02:46;12.52;;;8.93;;
49610;SDS011;35515;48.766;9.176;2023-09-08T07:05:14;11.95;;;9.38;;
49610;SDS011;35515;48.766;9.176;2023-09-08T07:07:41;12.13;;;9.00;;
49610;SDS011;35515;48.766;9.176;2023-09-08T07:10:09;13.05;;;9.80;;
49610;SDS011;35515;48.766;9.176;2023-09-08T07:12:37;14.70;;;9.15;;
49610;SDS011;35515;48.766;9.176;2023-09-08T07:15:03;14.52;;;9.10;;
49610;SDS011;35515;48.766;9.176;2023-09-08T07:17:31;13.02;;;9.30;;
49610;SDS011;35515;48.766;9.176;2023-09-08T07:19:57;13.40;;;9.32;;
49610;SDS011;35515;48.766;9.176;2023-09-08T07:22:24;13.80;;;9.45;;
49610;SDS011;35515;48.766;9.176;2023-09-08T07:24:50;12.93;;;9.10;;
49610;SDS011;35515;48.766;9.176;2023-09-08T07:27:18;10.50;;;8.25;;
49610;SDS011;35515;48.766;9.176;2023-09-08T07:29:45;10.52;;;8.75;;
49610;SDS011;35515;48.766;9.176;2023-09-08T07:32:13;14.02;;;9.43;;
49610;SDS011;35515;48.766;9.176;2023-09-08T07:34:39;12.65;;;8.70;;
49610;SDS011;35515;48.766;9.176;2023-09-08T07:37:06;18.45;;;9.77;;
49610;SDS011;35515;48.766;9.176;2023-09-08T07:39:32;13.50;;;8.52;;
49610;SDS011;35515;48.766;9.176;2023-09-08T07:42:00;12.48;;;9.52;;
49610;SDS011;35515;48.766;9.176;2023-09-08T07:44:28;11.52;;;9.02;;
49610;SDS011;35515;48.766;9.176;2023-09-08T07:46:55;11.40;;;8.82;;
49610;SDS011;35515;48.766;9.176;2023-09-08T07:49:21;11.98;;;8.82;;
49610;SDS011;35515;48.766;9.176;2023-09-08T07:51:48;10.52;;;8.63;;
49610;SDS011;35515;48.766;9.176;2023-09-08T07:54:15;12.80;;;8.63;;
49610;SDS011;35515;48.766;9.176;2023-09-08T07:56:41;13.07;;;9.05;;
49610;SDS011;35515;48.766;9.176;2023-09-08T07:59:08;11.25;;;8.23;;
49610;SDS011;35515;48.766;9.176;2023-09-08T08:01:36;10.48;;;8.15;;
49610;SDS011;35515;48.766;9.176;2023-09-08T08:04:03;11.73;;;8.23;;
49610;SDS011;35515;48.766;9.176;2023-09-08T08:06:29;11.63;;;8.82;;
49610;SDS011;35515;48.766;9.176;2023-09-08T08:08:56;13.60;;;9.20;;
49610;SDS011;35515;48.766;9.176;2023-09-08T08:11:23;11.30;;;7.88;;
49610;SDS011;35515;48.766;9.176;2023-09-08T08:13:50;10.95;;;8.43;;
49610;SDS011;35515;48.766;9.176;2023-09-08T08:16:17;12.05;;;8.30;;
49610;SDS011;35515;48.766;9.176;2023-09-08T08:18:46;16.17;;;8.73;;
49610;SDS011;35515;48.766;9.176;2023-09-08T08:21:13;9.88;;;8.05;;
49610;SDS011;35515;48.766;9.176;2023-09-08T08:23:40;13.50;;;8.48;;
49610;SDS011;35515;48.766;9.176;2023-09-08T08:26:06;10.43;;;7.85;;
49610;SDS011;35515;48.766;9.176;2023-09-08T08:28:33;11.32;;;7.95;;
49610;SDS011;35515;48.766;9.176;2023-09-08T08:31:01;11.57;;;8.60;;
49610;SDS011;35515;48.766;9.176;2023-09-08T08:33:27;12.55;;;7.95;;
49610;SDS011;35515;48.766;9.176;2023-09-08T08:35:56;11.25;;;8.07;;
49610;SDS011;35515;48.766;9.176;2023-09-08T08:38:22;10.10;;;8.25;;
49610;SDS011;35515;48.766;9.176;2023-09-08T08:40:49;13.48;;;8.70;;
49610;SDS011;35515;48.766;9.176;2023-09-08T08:43:15;14.02;;;8.45;;
49610;SDS011;35515;48.766;9.176;2023-09-08T08:45:42;9.38;;;7.38;;
49610;SDS011;35515;48.766;9.176;2023-09-08T08:48:10;11.52;;;8.13;;
49610;SDS011;35515;48.766;9.176;2023-09-08T08:50:39;10.70;;;8.07;;
49610;SDS011;35515;48.766;9.176;2023-09-08T08:53:10;12.60;;;7.93;;
49610;SDS011;35515;48.766;9.176;2023-09-08T08:55:38;11.52;;;7.75;;
49610;SDS011;35515;48.766;9.176;2023-09-08T08:58:07;12.95;;;8.23;;
49610;SDS011;35515;48.766;9.176;2023-09-08T09:00:34;10.57;;;8.00;;
49610;SDS011;35515;48.766;9.176;2023-09-08T09:03:03;12.38;;;8.13;;
49610;SDS011;35515;48.766;9.176;2023-09-08T09:05:31;11.75;;;8.70;;
49610;SDS011;35515;48.766;9.176;2023-09-08T09:07:58;12.18;;;8.80;;
49610;SDS011;35515;48.766;9.176;2023-09-08T09:10:29;9.55;;;8.00;;
49610;SDS011;35515;48.766;9.176;2023-09-08T09:12:56;11.52;;;7.75;;
49610;SDS011;35515;48.766;9.176;2023-09-08T09:15:27;11.93;;;8.02;;
49610;SDS011;35515;48.766;9.176;2023-09-08T09:18:01;9.82;;;7.53;;
49610;SDS011;35515;48.766;9.176;2023-09-08T09:20:29;14.57;;;8.52;;
49610;SDS011;35515;48.766;9.176;2023-09-08T09:22:56;12.63;;;8.52;;
49610;SDS011;35515;48.766;9.176;2023-09-08T09:25:23;14.85;;;8.68;;
49610;SDS011;35515;48.766;9.176;2023-09-08T09:27:52;17.08;;;8.65;;
49610;SDS011;35515;48.766;9.176;2023-09-08T09:30:19;11.38;;;7.80;;
49610;SDS011;35515;48.766;9.176;2023-09-08T09:32:47;15.57;;;8.23;;
49610;SDS011;35515;48.766;9.176;2023-09-08T09:35:14;11.65;;;7.30;;
49610;SDS011;35515;48.766;9.176;2023-09-08T09:37:42;13.48;;;7.97;;
49610;SDS011;35515;48.766;9.176;2023-09-08T09:40:08;17.08;;;7.85;;
49610;SDS011;35515;48.766;9.176;2023-09-08T09:42:37;13.75;;;7.70;;
49610;SDS011;35515;48.766;9.176;2023-09-08T09:45:06;9.40;;;7.18;;
49610;SDS011;35515;48.766;9.176;2023-09-08T09:47:34;10.20;;;7.35;;
49610;SDS011;35515;48.766;9.176;2023-09-08T09:50:00;10.45;;;7.88;;
49610;SDS011;35515;48.766;9.176;2023-09-08T09:52:28;11.10;;;7.18;;
49610;SDS011;35515;48.766;9.176;2023-09-08T09:54:56;9.82;;;7.22;;
49610;SDS011;35515;48.766;9.176;2023-09-08T09:57:24;10.45;;;6.90;;
49610;SDS011;35515;48.766;9.176;2023-09-08T09:59:51;11.30;;;7.20;;
49610;SDS011;35515;48.766;9.176;2023-09-08T10:02:21;12.65;;;7.70;;
49610;SDS011;35515;48.766;9.176;2023-09-08T10:04:48;10.15;;;7.13;;
49610;SDS011;35515;48.766;9.176;2023-09-08T10:07:16;11.27;;;6.70;;
49610;SDS011;35515;48.766;9.176;2023-09-08T10:09:44;9.57;;;7.03;;
49610;SDS011;35515;48.766;9.176;2023-09-08T10:12:12;17.70;;;7.68;;
49610;SDS011;35515;48.766;9.176;2023-09-08T10:17:08;8.52;;;7.00;;
49610;SDS011;35515;48.766;9.176;2023-09-08T10:19:42;10.75;;;6.75;;
49610;SDS011;35515;48.766;9.176;2023-09-08T10:22:14;10.63;;;7.15;;
49610;SDS011;35515;48.766;9.176;2023-09-08T10:24:45;8.20;;;6.47;;
49610;SDS011;35515;48.766;9.176;2023-09-08T10:27:14;8.73;;;7.13;;
49610;SDS011;35515;48.766;9.176;2023-09-08T10:29:44;11.98;;;6.55;;
49610;SDS011;35515;48.766;9.176;2023-09-08T10:32:11;7.95;;;6.63;;
49610;SDS011;35515;48.766;9.176;2023-09-08T10:34:38;8.90;;;6.80;;
49610;SDS011;35515;48.766;9.176;2023-09-08T10:37:18;14.70;;;7.32;;
49610;SDS011;35515;48.766;9.176;2023-09-08T10:39:45;9.77;;;7.30;;
49610;SDS011;35515;48.766;9.176;2023-09-08T10:42:22;9.18;;;6.78;;
49610;SDS011;35515;48.766;9.176;2023-09-08T10:44:55;8.20;;;6.18;;
49610;SDS011;35515;48.766;9.176;2023-09-08T10:47:32;9.43;;;5.97;;
49610;SDS011;35515;48.766;9.176;2023-09-08T10:50:06;10.48;;;6.72;;
49610;SDS011;35515;48.766;9.176;2023-09-08T10:52:35;9.48;;;6.20;;
49610;SDS011;35515;48.766;9.176;2023-09-08T10:55:01;10.93;;;6.22;;
49610;SDS011;35515;48.766;9.176;2023-09-08T10:57:30;10.30;;;6.88;;
49610;SDS011;35515;48.766;9.176;2023-09-08T11:00:00;11.70;;;6.03;;
49610;SDS011;35515;48.766;9.176;2023-09-08T11:02:34;11.10;;;6.57;;
49610;SDS011;35515;48.766;9.176;2023-09-08T11:05:03;9.65;;;6.95;;
49610;SDS011;35515;48.766;9.176;2023-09-08T11:07:32;8.65;;;6.53;;
49610;SDS011;35515;48.766;9.176;2023-09-08T11:10:00;7.82;;;6.07;;
49610;SDS011;35515;48.766;9.176;2023-09-08T11:12:27;10.05;;;6.93;;
49610;SDS011;35515;48.766;9.176;2023-09-08T11:14:54;9.90;;;6.25;;
49610;SDS011;35515;48.766;9.176;2023-09-08T11:17:24;6.72;;;5.70;;
49610;SDS011;35515;48.766;9.176;2023-09-08T11:19:51;9.18;;;6.13;;
49610;SDS011;35515;48.766;9.176;2023-09-08T11:22:18;9.15;;;5.80;;
49610;SDS011;35515;48.766;9.176;2023-09-08T11:24:44;8.93;;;5.95;;
49610;SDS011;35515;48.766;9.176;2023-09-08T11:27:12;8.98;;;6.15;;
49610;SDS011;35515;48.766;9.176;2023-09-08T11:29:39;8.48;;;6.45;;
49610;SDS011;35515;48.766;9.176;2023-09-08T11:32:06;8.68;;;6.00;;
49610;SDS011;35515;48.766;9.176;2023-09-08T11:34:33;8.32;;;6.53;;
49610;SDS011;35515;48.766;9.176;2023-09-08T11:37:00;8.80;;;6.53;;
49610;SDS011;35515;48.766;9.176;2023-09-08T11:39:27;8.85;;;6.78;;
49610;SDS011;35515;48.766;9.176;2023-09-08T11:41:54;10.82;;;6.35;;
49610;SDS011;35515;48.766;9.176;2023-09-08T11:44:22;9.38;;;7.15;;
49610;SDS011;35515;48.766;9.176;2023-09-08T11:46:49;9.18;;;7.40;;
49610;SDS011;35515;48.766;9.176;2023-09-08T11:49:18;8.43;;;6.78;;
49610;SDS011;35515;48.766;9.176;2023-09-08T11:51:45;10.38;;;7.20;;
49610;SDS011;35515;48.766;9.176;2023-09-08T11:54:11;11.85;;;7.55;;
49610;SDS011;35515;48.766;9.176;2023-09-08T11:56:38;12.18;;;7.10;;
49610;SDS011;35515;48.766;9.176;2023-09-08T11:59:05;9.43;;;7.25;;
49610;SDS011;35515;48.766;9.176;2023-09-08T12:01:35;12.73;;;7.30;;
49610;SDS011;35515;48.766;9.176;2023-09-08T12:04:01;10.63;;;7.20;;
49610;SDS011;35515;48.766;9.176;2023-09-08T12:06:28;9.82;;;6.68;;
49610;SDS011;35515;48.766;9.176;2023-09-08T12:08:55;9.43;;;6.80;;
49610;SDS011;35515;48.766;9.176;2023-09-08T12:11:22;11.18;;;7.07;;
49610;SDS011;35515;48.766;9.176;2023-09-08T12:13:48;8.93;;;6.32;;
49610;SDS011;35515;48.766;9.176;2023-09-08T12:16:18;9.80;;;6.97;;
49610;SDS011;35515;48.766;9.176;2023-09-08T12:18:46;9.00;;;7.50;;
49610;SDS011;35515;48.766;9.176;2023-09-08T12:21:13;9.57;;;6.80;;
49610;SDS011;35515;48.766;9.176;2023-09-08T12:23:46;7.93;;;6.10;;
49610;SDS011;35515;48.766;9.176;2023-09-08T12:26:14;10.10;;;7.18;;
49610;SDS011;35515;48.766;9.176;2023-09-08T12:28:41;9.43;;;6.70;;
49610;SDS011;35515;48.766;9.176;2023-09-08T12:31:08;9.15;;;6.22;;
49610;SDS011;35515;48.766;9.176;2023-09-08T12:33:35;8.43;;;6.60;;
49610;SDS011;35515;48.766;9.176;2023-09-08T12:36:10;10.00;;;6.38;;
49610;SDS011;35515;48.766;9.176;2023-09-08T12:38:39;9.15;;;6.18;;
49610;SDS011;35515;48.766;9.176;2023-09-08T12:41:05;9.85;;;7.50;;
49610;SDS011;35515;48.766;9.176;2023-09-08T12:43:32;13.07;;;7.47;;
49610;SDS011;35515;48.766;9.176;2023-09-08T12:45:59;7.95;;;6.40;;
49610;SDS011;35515;48.766;9.176;2023-09-08T12:48:26;10.88;;;6.70;;
49610;SDS011;35515;48.766;9.176;2023-09-08T12:50:52;10.23;;;6.55;;
49610;SDS011;35515;48.766;9.176;2023-09-08T12:53:20;8.15;;;6.60;;
49610;SDS011;35515;48.766;9.176;2023-09-08T12:55:48;7.82;;;6.57;;
49610;SDS011;35515;48.766;9.176;2023-09-08T12:58:14;9.07;;;6.15;;
49610;SDS011;35515;48.766;9.176;2023-09-08T13:00:42;8.35;;;6.78;;
49610;SDS011;35515;48.766;9.176;2023-09-08T13:03:08;8.60;;;6.50;;
49610;SDS011;35515;48.766;9.176;2023-09-08T13:05:35;9.77;;;6.85;;
49610;SDS011;35515;48.766;9.176;2023-09-08T13:08:03;9.27;;;6.00;;
49610;SDS011;35515;48.766;9.176;2023-09-08T13:10:32;8.13;;;6.10;;
49610;SDS011;35515;48.766;9.176;2023-09-08T13:12:58;7.95;;;6.82;;
49610;SDS011;35515;48.766;9.176;2023-09-08T13:15:25;8.75;;;5.97;;
49610;SDS011;35515;48.766;9.176;2023-09-08T13:17:51;8.23;;;5.85;;
49610;SDS011;35515;48.766;9.176;2023-09-08T13:20:18;11.48;;;6.40;;
49610;SDS011;35515;48.766;9.176;2023-09-08T13:22:44;10.13;;;6.43;;
49610;SDS011;35515;48.766;9.176;2023-09-08T13:25:11;9.27;;;6.43;;
49610;SDS011;35515;48.766;9.176;2023-09-08T13:27:39;7.20;;;6.10;;
49610;SDS011;35515;48.766;9.176;2023-09-08T13:30:07;8.60;;;6.30;;
49610;SDS011;35515;48.766;9.176;2023-09-08T13:32:35;11.57;;;6.55;;
49610;SDS011;35515;48.766;9.176;2023-09-08T13:35:01;12.73;;;10.50;;
49610;SDS011;35515;48.766;9.176;2023-09-08T13:37:28;9.07;;;7.30;;
49610;SDS011;35515;48.766;9.176;2023-09-08T13:39:55;12.02;;;6.10;;
49610;SDS011;35515;48.766;9.176;2023-09-08T13:42:22;7.25;;;5.68;;
49610;SDS011;35515;48.766;9.176;2023-09-08T13:44:50;7.90;;;5.93;;
49610;SDS011;35515;48.766;9.176;2023-09-08T13:47:16;8.63;;;5.57;;
49610;SDS011;35515;48.766;9.176;2023-09-08T13:49:43;8.23;;;5.78;;
49610;SDS011;35515;48.766;9.176;2023-09-08T13:52:09;8.90;;;6.07;;
49610;SDS011;35515;48.766;9.176;2023-09-08T13:54:36;7.05;;;5.85;;
49610;SDS011;35515;48.766;9.176;2023-09-08T13:57:03;6.43;;;5.57;;
49610;SDS011;35515;48.766;9.176;2023-09-08T13:59:30;9.48;;;6.10;;
49610;SDS011;35515;48.766;9.176;2023-09-08T14:01:58;9.02;;;6.43;;
49610;SDS011;35515;48.766;9.176;2023-09-08T14:04:26;11.00;;;6.32;;
49610;SDS011;35515;48.766;9.176;2023-09-08T14:06:53;7.32;;;5.35;;
49610;SDS011;35515;48.766;9.176;2023-09-08T14:09:19;9.38;;;5.63;;
49610;SDS011;35515;48.766;9.176;2023-09-08T14:11:46;6.32;;;5.10;;
49610;SDS011;35515;48.766;9.176;2023-09-08T14:14:12;7.97;;;5.65;;
49610;SDS011;35515;48.766;9.176;2023-09-08T14:16:39;7.78;;;5.57;;
49610;SDS011;35515;48.766;9.176;2023-09-08T14:19:07;10.15;;;5.72;;
49610;SDS011;35515;48.766;9.176;2023-09-08T14:21:34;9.32;;;5.15;;
49610;SDS011;35515;48.766;9.176;2023-09-08T14:24:02;7.25;;;4.78;;
49610;SDS011;35515;48.766;9.176;2023-09-08T14:26:28;9.50;;;6.28;;
49610;SDS011;35515;48.766;9.176;2023-09-08T14:28:54;8.45;;;6.05;;
49610;SDS011;35515;48.766;9.176;2023-09-08T14:31:21;9.27;;;6.05;;
49610;SDS011;35515;48.766;9.176;2023-09-08T14:33:47;9.93;;;5.32;;
49610;SDS011;35515;48.766;9.176;2023-09-08T14:36:17;7.63;;;5.45;;
49610;SDS011;35515;48.766;9.176;2023-09-08T14:38:44;9.70;;;5.97;;
49610;SDS011;35515;48.766;9.176;2023-09-08T14:41:11;7.30;;;5.82;;
49610;SDS011;35515;48.766;9.176;2023-09-08T14:43:37;8.35;;;5.82;;
49610;SDS011;35515;48.766;9.176;2023-09-08T14:46:04;9.13;;;5.55;;
49610;SDS011;35515;48.766;9.176;2023-09-08T14:48:30;8.73;;;6.05;;
49610;SDS011;35515;48.766;9.176;2023-09-08T14:50:57;8.27;;;5.97;;